• Join FlightAware (Why Join?)
  • Login
  • US Flag 
09:08AM EST


 

Airport Tracker/Info


-or-


 

Live Flight TrackerFlight Track Log ✈ AWI3789 ✈ 08-Oct-2013 ✈ KPHL - KDCA

Flight Track Log - Related Links

Times and Time Zones

All times are in EDT time to prevent confusion due to time zone crossing. See the AWI3789 flight status page for this flight to view local times or setup timezone preferences in your user account.

Time Position Orientation Groundspeed Altitude Reporting Facility
EDT Latitude Longitude Course Direction KTS MPH feet Rate Location/Type
10:57PM 39.8667 -75.2833 258° West 150 173 700  Level Philadelphia TRACON
10:58PM 39.8333 -75.3667 243° Southwest 259 298 3,400 2,700 Climbing Philadelphia TRACON
10:59PM 39.7519 -75.4581 264° West  Level Estimated
10:59PM 39.7833 -75.4500 232° Southwest 282 325 7,000  Level Philadelphia TRACON
11:00PM 39.7272 -75.5413 249° West  Level FlightAware Approximate
11:00PM 39.7333 -75.5000 218° Southwest 282 325 9,000  Level Philadelphia TRACON
11:01PM 39.7025 -75.6245 249° West  Level FlightAware Approximate
11:01PM 39.6833 -75.6000 237° Southwest 335 386 10,100  Level Philadelphia TRACON
11:02PM 39.6608 -75.6952 258° West  Level Estimated
11:02PM 39.6667 -75.7167 260° West 323 372 10,100  Level Philadelphia TRACON
11:03PM 39.6500 -75.8500 261° West 326 375 10,100 -60 Level Philadelphia TRACON
11:05PM 39.6000 -76.1167 256° West 336 387 10,000 -60 Descending Potomac TRACON
11:06PM 39.5500 -76.2167 237° Southwest 342 394 10,000  Level Potomac TRACON
11:07PM 39.4667 -76.3000 218° Southwest 347 399 10,000  Level Potomac TRACON
11:08PM 39.4000 -76.3833 224° Southwest 349 402 10,000  Level Potomac TRACON
11:09PM 39.3333 -76.4667 224° Southwest 351 404 10,000  Level Potomac TRACON
11:10PM 39.2667 -76.5500 224° Southwest 352 405 10,000  Level Potomac TRACON
11:11PM 39.1833 -76.6500 223° Southwest 354 407 10,000  Level Potomac TRACON
11:12PM 39.1167 -76.7333 224° Southwest 354 407 10,000  Level Potomac TRACON
11:13PM 39.0333 -76.8167 218° Southwest 334 384 10,000 -840 Level Potomac TRACON
11:14PM 38.9833 -76.8833 226° Southwest 294 338 8,400 -1,740 Descending Potomac TRACON
11:15PM 38.9167 -76.9333 210° Southwest 277 319 6,500 -1,740 Descending Potomac TRACON
11:16PM 38.8500 -76.9500 191° South 233 268 4,900 -1,500 Descending Potomac TRACON
11:17PM 38.7833 -76.9500 180° South 215 247 3,500 -960 Descending Potomac TRACON
11:18PM 38.7333 -76.9333 165° South 206 237 3,000 -300 Descending Potomac TRACON
11:19PM 38.7000 -76.9833 230° Southwest 219 252 2,900 -360 Descending Potomac TRACON
11:20PM 38.7167 -77.0167 303° West 170 196 2,300 -660 Descending Potomac TRACON
11:21PM 38.7667 -77.0333 345° North 157 181 1,600 -720 Descending Potomac TRACON
11:22PM 38.8000 -77.0333 360° North 137 158 900 -720 Descending Potomac TRACON